Time;durP1;ratioP1;P1;durP2;ratioP2;P2;SDS_P1;SDS_P2;PMS_P1;PMS_P2;Temp;Humidity;BMP_temperature;BMP_pressure;BME280_temperature;BME280_humidity;BME280_pressure;Samples;Min_cycle;Max_cycle;Signal;HPM_P1;HPM_P2
2021/09/02 00:00:37;;;;;;;26.87;14.97;;;;;;;14.78;86.95;102625.38;2090090;28;20124;-60
2021/09/02 00:01:37;;;;;;;19.20;13.53;;;;;;;14.78;87.37;102625.38;2090057;28;20041;-60
2021/09/02 00:02:37;;;;;;;22.07;13.67;;;;;;;14.77;87.22;102632.38;2089524;28;20053;-60
2021/09/02 00:03:37;;;;;;;21.43;13.63;;;;;;;14.77;87.58;102628.88;2089420;28;20036;-60
2021/09/02 00:04:38;;;;;;;24.03;13.90;;;;;;;14.78;87.54;102622.75;2090016;28;20029;-60
2021/09/02 00:05:38;;;;;;;21.80;14.50;;;;;;;14.78;87.25;102628.00;2090022;28;20051;-60
2021/09/02 00:06:38;;;;;;;20.40;13.60;;;;;;;14.78;87.15;102633.25;2090047;28;20087;-60
2021/09/02 00:07:38;;;;;;;23.83;14.33;;;;;;;14.76;87.56;102627.16;2089969;28;20074;-59
2021/09/02 00:08:39;;;;;;;19.57;13.77;;;;;;;14.74;87.61;102628.94;2090065;28;20025;-59
2021/09/02 00:09:39;;;;;;;18.90;12.50;;;;;;;14.73;87.63;102619.34;2090070;28;20036;-59
2021/09/02 00:10:40;;;;;;;20.15;12.35;;;;;;;14.72;87.46;102622.91;2090030;28;20512;-59
2021/09/02 00:11:40;;;;;;;19.40;12.38;;;;;;;14.71;87.24;102632.53;2090084;28;20104;-60
2021/09/02 00:12:40;;;;;;;20.80;12.37;;;;;;;14.72;87.61;102622.91;2089979;28;20496;-59
2021/09/02 00:13:40;;;;;;;24.13;14.43;;;;;;;14.73;87.56;102629.88;2090006;28;20017;-60
2021/09/02 00:14:41;;;;;;;20.17;13.90;;;;;;;14.73;87.69;102627.22;2090128;28;20067;-60
2021/09/02 00:15:41;;;;;;;17.80;13.73;;;;;;;14.73;87.27;102629.88;2081167;28;20029;-59
2021/09/02 00:16:42;;;;;;;26.37;15.80;;;;;;;14.72;87.32;102625.53;2072771;28;20053;-60
2021/09/02 00:17:42;;;;;;;28.02;16.15;;;;;;;14.72;87.21;102620.28;2081164;28;20532;-60
2021/09/02 00:18:42;;;;;;;20.65;13.25;;;;;;;14.72;87.30;102618.50;2081100;28;20034;-60
2021/09/02 00:19:43;;;;;;;24.03;13.70;;;;;;;14.73;87.39;102624.59;2081229;28;20159;-60
2021/09/02 00:20:43;;;;;;;19.47;13.03;;;;;;;14.74;87.44;102621.06;2081075;28;20033;-59
2021/09/02 00:21:43;;;;;;;24.27;13.57;;;;;;;14.72;87.36;102629.03;2072951;28;20475;-59
2021/09/02 00:22:44;;;;;;;21.60;13.93;;;;;;;14.71;87.31;102626.44;2081076;28;20036;-59
2021/09/02 00:23:44;;;;;;;20.50;14.15;;;;;;;14.69;87.30;102621.22;2089883;28;20028;-60
2021/09/02 00:24:44;;;;;;;22.73;14.63;;;;;;;14.71;87.47;102626.44;2090022;28;20021;-60
2021/09/02 00:25:45;;;;;;;22.93;15.53;;;;;;;14.68;87.40;102623.00;2089959;28;20033;-61
2021/09/02 00:26:45;;;;;;;20.67;14.50;;;;;;;14.67;87.69;102616.03;2090003;28;20044;-60
2021/09/02 00:27:46;;;;;;;19.00;14.93;;;;;;;14.68;87.36;102623.00;2089960;28;20532;-60
2021/09/02 00:28:46;;;;;;;24.00;16.08;;;;;;;14.67;87.45;102617.78;2089981;28;20090;-61
2021/09/02 00:29:46;;;;;;;23.23;14.40;;;;;;;14.65;87.19;102623.06;2090087;28;20035;-58
2021/09/02 00:30:46;;;;;;;31.87;14.93;;;;;;;14.66;87.12;102619.56;2081027;28;20040;-61
2021/09/02 00:31:47;;;;;;;31.83;14.90;;;;;;;14.68;87.03;102623.00;2073115;28;20026;-58
2021/09/02 00:32:47;;;;;;;25.30;13.87;;;;;;;14.69;87.02;102615.97;2072739;28;20480;-60
2021/09/02 00:33:49;;;;;;;20.10;14.68;;;;;;;14.68;87.31;102612.47;2081119;28;20369;-59
2021/09/02 00:34:49;;;;;;;22.70;14.18;;;;;;;14.66;87.14;102609.06;2089942;28;20398;-60
2021/09/02 00:35:49;;;;;;;21.10;14.03;;;;;;;14.64;87.31;102608.22;2090004;28;20100;-59
2021/09/02 00:36:50;;;;;;;25.47;13.60;;;;;;;14.65;87.45;102616.97;2089298;28;20029;-59
2021/09/02 00:37:50;;;;;;;22.70;14.50;;;;;;;14.64;87.61;102616.13;2089286;28;20108;-59
2021/09/02 00:38:50;;;;;;;23.17;14.17;;;;;;;14.62;87.63;102615.31;2089965;28;20099;-59
2021/09/02 00:39:50;;;;;;;21.23;14.20;;;;;;;14.60;87.71;102609.22;2089890;28;20083;-60
2021/09/02 00:40:51;;;;;;;23.63;14.30;;;;;;;14.60;87.60;102605.72;2089998;28;20037;-59
2021/09/02 00:41:51;;;;;;;19.67;15.07;;;;;;;14.58;87.45;102605.81;2089930;28;20429;-60
2021/09/02 00:42:51;;;;;;;20.50;14.23;;;;;;;14.58;88.00;102608.44;2089938;28;20418;-59
2021/09/02 00:43:51;;;;;;;26.00;15.57;;;;;;;14.57;87.59;102606.69;2089860;28;20386;-59
2021/09/02 00:44:52;;;;;;;18.93;13.93;;;;;;;14.58;87.78;102605.81;2089946;28;20037;-60
2021/09/02 00:45:55;;;;;;;23.73;13.50;;;;;;;14.58;87.63;102611.06;2089892;28;20041;-59
2021/09/02 00:46:55;;;;;;;23.35;13.50;;;;;;;14.57;87.35;102608.47;2089907;28;20059;-60
2021/09/02 00:47:55;;;;;;;27.47;14.40;;;;;;;14.54;87.43;102602.41;2089950;28;20021;-59
2021/09/02 00:48:56;;;;;;;26.23;12.80;;;;;;;14.53;87.96;102610.34;2089933;28;20021;-59
2021/09/02 00:49:56;;;;;;;22.40;13.18;;;;;;;14.52;87.81;102617.38;2089888;28;20074;-59
2021/09/02 00:50:57;;;;;;;23.73;13.30;;;;;;;14.52;87.69;102608.63;2089270;28;20031;-60
2021/09/02 00:52:08;;;;;;;19.97;12.47;;;;;;;14.53;87.60;102602.44;2089440;28;20067;-59
2021/09/02 00:53:08;;;;;;;;;;;;;;;14.54;87.22;102606.78;2081309;28;20025;-59
2021/09/02 00:54:09;;;;;;;24.97;13.17;;;;;;;14.55;87.30;102605.91;2072834;28;19909;-59
2021/09/02 00:55:09;;;;;;;18.60;12.87;;;;;;;14.54;87.27;102614.66;2081112;28;20017;-59
2021/09/02 00:56:10;;;;;;;17.75;10.95;;;;;;;14.54;86.57;102614.66;2089185;28;20354;-60
2021/09/02 00:57:11;;;;;;;28.15;14.07;;;;;;;14.54;86.82;102612.03;2089178;28;20021;-61
2021/09/02 00:58:11;;;;;;;22.60;12.77;;;;;;;14.55;86.56;102608.53;2089209;28;20414;-60
2021/09/02 00:59:11;;;;;;;19.30;12.87;;;;;;;14.54;86.71;102604.16;2089289;28;20024;-60
2021/09/02 01:00:15;;;;;;;22.83;13.93;;;;;;;14.53;86.46;102615.59;2091391;28;20064;-59
2021/09/02 01:01:16;;;;;;;20.88;12.85;;;;;;;14.51;86.69;102599.88;2091185;28;20090;-60
2021/09/02 01:02:18;;;;;;;21.13;13.52;;;;;;;14.51;86.51;102612.16;2091218;28;20120;-60
2021/09/02 01:03:20;;;;;;;25.58;12.07;;;;;;;14.49;86.92;102606.06;2091192;28;20474;-60
2021/09/02 01:04:21;;;;;;;25.13;11.85;;;;;;;14.48;87.14;102604.38;2091373;28;20021;-60
2021/09/02 01:05:22;;;;;;;21.50;13.05;;;;;;;14.47;86.98;102606.13;2091396;28;20074;-60
2021/09/02 01:06:22;;;;;;;25.13;13.05;;;;;;;14.47;87.13;102608.75;2091347;28;20120;-60
2021/09/02 01:07:24;;;;;;;17.93;12.90;;;;;;;14.47;87.16;102607.91;2091260;28;20032;-60
2021/09/02 01:08:25;;;;;;;20.15;11.52;;;;;;;14.46;87.29;102612.28;2091387;28;20482;-60
2021/09/02 01:09:26;;;;;;;19.17;11.80;;;;;;;14.46;87.16;102614.91;2091271;28;20027;-60
2021/09/02 01:10:27;;;;;;;22.77;12.60;;;;;;;14.46;87.49;102616.69;2091171;28;20024;-60
2021/09/02 01:11:27;;;;;;;22.17;14.00;;;;;;;14.45;87.04;102614.97;2091302;28;20573;-60
2021/09/02 01:12:41;;;;;;;25.40;13.27;;;;;;;14.45;87.13;102607.09;2091314;28;20025;-60
2021/09/02 01:13:41;;;;;;;18.95;12.95;;;;;;;14.46;87.31;102617.53;2091209;28;20057;-61
2021/09/02 01:14:42;;;;;;;23.17;12.77;;;;;;;14.45;86.89;102613.22;2091294;28;20025;-60
2021/09/02 01:15:42;;;;;;;22.77;12.13;;;;;;;14.45;87.17;102614.97;2091309;28;20559;-60
2021/09/02 01:16:46;;;;;;;20.05;12.95;;;;;;;14.45;87.02;102610.59;2091177;28;20131;-60
2021/09/02 01:17:48;;;;;;;26.70;12.88;;;;;;;14.45;87.31;102614.97;2082414;28;20029;-60
2021/09/02 01:18:48;;;;;;;21.38;12.02;;;;;;;14.45;87.07;102612.34;2082583;28;20083;-60
2021/09/02 01:19:51;;;;;;;22.20;12.57;;;;;;;14.45;86.97;102610.59;2091299;28;20029;-59
2021/09/02 01:20:52;;;;;;;20.00;12.68;;;;;;;14.45;87.13;102612.34;2090499;28;20025;-60
2021/09/02 01:21:52;;;;;;;21.40;12.73;;;;;;;14.44;87.02;102618.50;2090641;28;20474;-59
2021/09/02 01:22:55;;;;;;;20.43;11.20;;;;;;;14.42;87.22;102615.91;2091171;28;20033;-60
2021/09/02 01:23:56;;;;;;;18.05;11.43;;;;;;;14.41;87.41;102608.97;2091220;28;20025;-60
2021/09/02 01:25:01;;;;;;;18.17;12.60;;;;;;;14.40;87.19;102608.09;2091258;28;20025;-60
2021/09/02 01:26:15;;;;;;;26.63;14.38;;;;;;;14.40;86.82;102615.09;2091228;28;20025;-60
2021/09/02 01:27:17;;;;;;;17.42;12.02;;;;;;;14.38;86.60;102615.16;2091172;28;20029;-59
2021/09/02 01:28:17;;;;;;;19.95;13.98;;;;;;;14.36;86.80;102611.72;2090458;28;20470;-60
2021/09/02 01:29:22;;;;;;;26.03;14.07;;;;;;;14.37;86.49;102615.22;2090557;28;20017;-60
2021/09/02 01:30:23;;;;;;;22.13;13.93;;;;;;;14.38;86.87;102614.28;2091220;28;20033;-60
2021/09/02 01:31:24;;;;;;;27.98;13.07;;;;;;;14.37;86.44;102616.06;2091212;28;20025;-60
2021/09/02 01:32:26;;;;;;;17.60;12.13;;;;;;;14.39;86.62;102616.00;2091202;28;20021;-60
2021/09/02 01:33:26;;;;;;;20.38;12.85;;;;;;;14.39;86.57;102614.25;2090944;28;20031;-59
2021/09/02 01:34:26;;;;;;;21.43;13.70;;;;;;;14.37;86.62;102613.44;2091146;28;20035;-61
2021/09/02 01:35:31;;;;;;;24.07;12.67;;;;;;;14.37;86.81;102613.44;2091176;28;20025;-61
2021/09/02 01:36:32;;;;;;;21.27;14.15;;;;;;;14.36;86.64;102611.72;2082245;28;20043;-59
2021/09/02 01:37:43;;;;;;;24.20;13.80;;;;;;;14.35;86.71;102615.25;2082270;28;20489;-59
2021/09/02 01:38:44;;;;;;;20.85;13.55;;;;;;;14.33;86.86;102611.78;2090971;28;20470;-59
2021/09/02 01:39:47;;;;;;;18.08;11.63;;;;;;;14.32;86.77;102610.09;2091022;28;20035;-60
2021/09/02 01:40:47;;;;;;;23.08;12.30;;;;;;;14.34;86.78;102613.50;2091105;28;20100;-59
2021/09/02 01:41:48;;;;;;;21.07;12.57;;;;;;;14.32;86.91;102607.47;2091072;28;20528;-60
2021/09/02 01:42:48;;;;;;;24.33;13.50;;;;;;;14.32;87.16;102607.47;2090967;28;20096;-61
2021/09/02 01:43:50;;;;;;;22.45;13.07;;;;;;;14.31;86.81;102611.00;2090333;28;20458;-59
2021/09/02 01:44:51;;;;;;;21.33;14.15;;;;;;;14.30;86.72;102611.88;2090471;28;20107;-62
2021/09/02 01:45:51;;;;;;;19.70;13.37;;;;;;;14.30;86.88;102609.25;2090984;28;20024;-61
2021/09/02 01:46:51;;;;;;;18.70;12.53;;;;;;;14.32;86.85;102612.72;2091014;28;20371;-60
2021/09/02 01:47:58;;;;;;;27.47;13.00;;;;;;;14.31;86.84;102613.63;2090282;28;20024;-62
2021/09/02 01:48:58;;;;;;;21.75;12.45;;;;;;;14.32;86.68;102615.34;2090413;28;20128;-60
2021/09/02 01:50:11;;;;;;;20.97;12.17;;;;;;;14.31;86.97;102618.00;2082127;28;20522;-59
2021/09/02 01:51:11;;;;;;;20.60;11.98;;;;;;;14.29;86.95;102615.44;2083956;28;20467;-61
2021/09/02 01:52:12;;;;;;;21.13;12.57;;;;;;;14.29;87.13;102615.44;2091099;28;20025;-61
2021/09/02 01:53:14;;;;;;;23.73;13.53;;;;;;;14.29;86.95;102618.06;2090888;28;20090;-63
2021/09/02 01:54:14;;;;;;;26.52;13.15;;;;;;;14.29;86.94;102615.44;2090907;28;20112;-59
2021/09/02 01:55:16;;;;;;;25.37;14.23;;;;;;;14.29;86.53;102611.03;2090923;28;20040;-60
2021/09/02 01:56:16;;;;;;;;;;;;;;;14.29;86.68;102611.03;2091333;28;20025;-60
2021/09/02 01:57:16;;;;;;;24.35;12.25;;;;;;;14.28;86.84;102609.34;2090936;28;20002;-60
2021/09/02 01:58:17;;;;;;;19.77;13.00;;;;;;;14.28;86.61;102608.47;2091144;28;20032;-59
2021/09/02 01:59:17;;;;;;;21.05;13.18;;;;;;;14.28;86.85;102608.47;2090892;28;20338;-60
2021/09/02 02:00:19;;;;;;;23.23;12.87;;;;;;;14.27;86.79;102614.63;2090369;28;20115;-60
2021/09/02 02:01:19;;;;;;;19.95;13.45;;;;;;;14.26;86.70;102605.00;2090368;28;20063;-59
2021/09/02 02:02:19;;;;;;;19.47;12.57;;;;;;;14.24;86.97;102602.44;2082149;28;20025;-64
2021/09/02 02:03:20;;;;;;;20.10;13.53;;;;;;;14.24;86.78;102601.59;2082042;28;20051;-64
2021/09/02 02:04:20;;;;;;;23.97;12.90;;;;;;;14.25;87.03;102608.53;2090980;28;20031;-64
2021/09/02 02:05:21;;;;;;;23.03;12.70;;;;;;;14.25;86.97;102600.66;2090932;28;20520;-64
2021/09/02 02:06:21;;;;;;;19.50;13.20;;;;;;;14.23;87.56;102602.50;2090939;28;20519;-64
2021/09/02 02:07:21;;;;;;;20.53;12.87;;;;;;;14.21;87.36;102601.66;2090939;28;20398;-64
2021/09/02 02:08:21;;;;;;;23.23;13.20;;;;;;;14.21;87.53;102601.66;2090180;28;20465;-64
2021/09/02 02:09:22;;;;;;;21.20;14.70;;;;;;;14.19;87.60;102593.00;2081937;28;20020;-64
2021/09/02 02:10:26;;;;;;;20.07;12.97;;;;;;;14.20;87.57;102605.22;2082043;28;20657;-64
2021/09/02 02:11:27;;;;;;;20.00;12.77;;;;;;;14.20;87.70;102605.22;2090211;28;20025;-65
2021/09/02 02:12:27;;;;;;;21.07;12.70;;;;;;;14.19;87.64;102603.50;2090841;28;20017;-65
2021/09/02 02:13:27;;;;;;;21.93;12.80;;;;;;;14.18;87.63;102599.13;2090804;28;20082;-64
2021/09/02 02:14:27;;;;;;;22.07;13.67;;;;;;;14.19;88.11;102601.72;2090913;28;20045;-64
2021/09/02 02:15:28;;;;;;;21.33;13.47;;;;;;;14.18;88.00;102597.38;2090734;28;20029;-64
2021/09/02 02:16:29;;;;;;;23.77;13.95;;;;;;;14.18;87.83;102607.88;2090603;28;20049;-64
2021/09/02 02:17:29;;;;;;;27.20;14.77;;;;;;;14.18;87.74;102612.25;2090728;28;20466;-64
2021/09/02 02:18:29;;;;;;;21.37;14.60;;;;;;;14.20;87.85;102599.97;2090662;28;20321;-64
2021/09/02 02:19:29;;;;;;;20.97;13.73;;;;;;;14.20;87.78;102603.41;2090739;28;20504;-64
2021/09/02 02:20:31;;;;;;;18.80;12.82;;;;;;;14.22;87.82;102603.38;2090698;28;20426;-65
2021/09/02 02:21:31;;;;;;;22.03;13.70;;;;;;;14.21;87.66;102602.53;2090734;28;20025;-64
2021/09/02 02:22:31;;;;;;;21.83;14.40;;;;;;;14.22;87.93;102606.00;2090634;28;20021;-64
2021/09/02 02:23:32;;;;;;;20.30;13.33;;;;;;;14.23;87.80;102603.34;2090584;28;20104;-64
2021/09/02 02:24:32;;;;;;;20.17;14.77;;;;;;;14.24;87.95;102606.84;2090723;28;20390;-65
2021/09/02 02:25:32;;;;;;;22.47;14.70;;;;;;;14.23;88.02;102600.72;2090635;28;20122;-63
2021/09/02 02:26:33;;;;;;;20.33;12.33;;;;;;;14.24;87.79;102607.69;2090681;28;20033;-65
2021/09/02 02:27:34;;;;;;;21.73;12.48;;;;;;;14.23;88.03;102600.72;2081757;28;20025;-64
2021/09/02 02:28:34;;;;;;;23.15;14.70;;;;;;;14.22;88.46;102609.50;2081808;28;20075;-65
2021/09/02 02:29:34;;;;;;;22.67;13.67;;;;;;;14.21;88.13;102601.66;2090665;28;20473;-65
2021/09/02 02:30:35;;;;;;;25.13;13.20;;;;;;;14.20;88.48;102595.53;2081764;28;20021;-65
2021/09/02 02:31:35;;;;;;;23.67;14.47;;;;;;;14.20;88.66;102595.53;2081785;28;20087;-65
2021/09/02 02:32:35;;;;;;;20.17;12.73;;;;;;;14.20;88.17;102600.78;2090681;28;20064;-64
2021/09/02 02:33:35;;;;;;;20.90;13.43;;;;;;;14.20;88.44;102599.97;2090618;28;20021;-64
2021/09/02 02:34:36;;;;;;;23.77;13.53;;;;;;;14.20;88.63;102594.72;2089982;28;20108;-64
2021/09/02 02:35:36;;;;;;;25.30;14.50;;;;;;;14.22;88.60;102598.13;2089969;28;20096;-64
2021/09/02 02:36:37;;;;;;;18.23;12.63;;;;;;;14.22;88.63;102595.50;2090658;28;20469;-64
2021/09/02 02:37:38;;;;;;;21.38;13.20;;;;;;;14.22;88.53;102596.38;2090467;28;20025;-64
2021/09/02 02:38:39;;;;;;;20.95;12.85;;;;;;;14.22;88.76;102593.75;2090541;28;20025;-65
2021/09/02 02:39:39;;;;;;;20.83;13.88;;;;;;;14.24;88.55;102601.59;2090577;28;20017;-65
2021/09/02 02:40:39;;;;;;;23.60;13.33;;;;;;;14.24;88.62;102591.09;2090565;28;20029;-65
2021/09/02 02:41:39;;;;;;;20.30;12.53;;;;;;;14.23;88.60;102599.88;2090629;28;20086;-64
2021/09/02 02:42:40;;;;;;;25.90;13.73;;;;;;;14.24;88.78;102601.59;2090524;28;20047;-65
2021/09/02 02:43:40;;;;;;;24.00;13.68;;;;;;;14.23;88.98;102594.63;2081581;28;20022;-64
2021/09/02 02:44:41;;;;;;;29.43;13.77;;;;;;;14.22;88.84;102592.88;2081692;28;20025;-63
2021/09/02 02:45:41;;;;;;;25.00;13.88;;;;;;;14.23;88.70;102594.63;2090464;28;20036;-64
2021/09/02 02:46:41;;;;;;;19.87;13.87;;;;;;;14.23;88.89;102595.47;2090394;28;20390;-64
2021/09/02 02:47:42;;;;;;;21.97;12.47;;;;;;;14.24;88.85;102601.59;2090595;28;20025;-64
2021/09/02 02:48:42;;;;;;;19.27;12.70;;;;;;;14.25;89.23;102592.78;2090470;28;20021;-64
2021/09/02 02:49:42;;;;;;;22.73;14.30;;;;;;;14.23;88.99;102595.47;2090528;28;20116;-64
2021/09/02 02:50:43;;;;;;;18.83;13.13;;;;;;;14.23;89.04;102597.25;2090495;28;20060;-64
2021/09/02 02:51:43;;;;;;;24.02;13.15;;;;;;;14.24;89.13;102601.59;2090499;28;20082;-64
2021/09/02 02:52:43;;;;;;;22.10;11.87;;;;;;;14.23;89.19;102589.38;2090385;28;20113;-65
2021/09/02 02:53:43;;;;;;;19.07;13.33;;;;;;;14.22;89.29;102592.88;2090417;28;20023;-65
2021/09/02 02:54:44;;;;;;;24.57;13.37;;;;;;;14.23;89.12;102592.84;2090435;28;20501;-65
2021/09/02 02:55:44;;;;;;;17.83;11.50;;;;;;;14.22;89.16;102596.38;2090451;28;20108;-65
2021/09/02 02:56:44;;;;;;;21.60;13.23;;;;;;;14.23;89.32;102589.38;2090410;28;20029;-64
2021/09/02 02:57:44;;;;;;;20.15;12.70;;;;;;;14.21;89.50;102589.41;2090272;28;20075;-64
2021/09/02 02:58:45;;;;;;;25.03;13.00;;;;;;;14.22;89.49;102596.38;2090466;28;20024;-64
2021/09/02 02:59:45;;;;;;;23.30;13.83;;;;;;;14.21;89.71;102592.03;2090457;28;20373;-63
2021/09/02 03:00:45;;;;;;;22.57;14.23;;;;;;;14.21;89.63;102591.16;2090414;28;20100;-63
2021/09/02 03:01:46;;;;;;;24.50;14.50;;;;;;;14.20;89.79;102585.03;2090403;28;20523;-64
2021/09/02 03:02:46;;;;;;;24.40;13.83;;;;;;;14.21;89.43;102586.78;2090320;28;20029;-63
2021/09/02 03:03:46;;;;;;;22.07;13.13;;;;;;;14.20;89.51;102589.47;2090294;28;20025;-64
2021/09/02 03:04:47;;;;;;;20.97;11.83;;;;;;;14.19;89.61;102587.75;2090353;28;20036;-63
2021/09/02 03:05:47;;;;;;;22.97;13.77;;;;;;;14.20;89.39;102589.47;2090356;28;20029;-64
2021/09/02 03:06:47;;;;;;;21.43;13.73;;;;;;;14.20;89.60;102584.19;2090410;28;20412;-63
2021/09/02 03:07:47;;;;;;;21.97;13.50;;;;;;;14.20;89.75;102589.47;2090251;28;20039;-63
2021/09/02 03:08:47;;;;;;;21.07;12.77;;;;;;;14.20;89.56;102589.47;2090370;28;20036;-64
2021/09/02 03:09:48;;;;;;;24.17;13.43;;;;;;;14.19;89.51;102587.75;2090342;28;20128;-64
2021/09/02 03:10:48;;;;;;;26.10;13.83;;;;;;;14.19;89.50;102588.59;2090215;28;20031;-64
2021/09/02 03:11:48;;;;;;;20.17;13.63;;;;;;;14.18;89.53;102583.38;2090235;28;20029;-64
2021/09/02 03:12:49;;;;;;;26.67;13.93;;;;;;;14.20;89.37;102589.47;2090300;28;20033;-64
2021/09/02 03:13:49;;;;;;;24.27;14.00;;;;;;;14.19;88.90;102585.13;2090291;28;20025;-65
2021/09/02 03:14:49;;;;;;;21.73;13.93;;;;;;;14.19;89.21;102587.75;2090440;28;20433;-65
2021/09/02 03:15:49;;;;;;;24.70;14.17;;;;;;;14.19;89.15;102585.13;2089616;28;20025;-64
2021/09/02 03:16:49;;;;;;;18.43;14.47;;;;;;;14.19;89.07;102583.34;2081271;28;20056;-64
2021/09/02 03:17:50;;;;;;;20.83;13.10;;;;;;;14.21;88.65;102585.91;2081428;28;20071;-64
2021/09/02 03:18:50;;;;;;;19.60;13.33;;;;;;;14.19;88.90;102587.75;2081390;28;20116;-64
2021/09/02 03:19:50;;;;;;;20.87;13.63;;;;;;;14.16;89.13;102584.28;2081393;28;20100;-65
2021/09/02 03:20:50;;;;;;;23.17;12.23;;;;;;;14.15;89.22;102579.94;2090195;28;20390;-63
2021/09/02 03:21:51;;;;;;;22.83;14.00;;;;;;;14.15;89.23;102587.81;2090308;28;20027;-65
2021/09/02 03:22:51;;;;;;;20.33;12.07;;;;;;;14.14;89.05;102583.47;2089448;28;20028;-64
2021/09/02 03:23:52;;;;;;;18.15;12.23;;;;;;;14.13;89.36;102584.38;2089952;28;20028;-63
2021/09/02 03:24:52;;;;;;;21.37;11.77;;;;;;;14.11;89.34;102583.56;2090185;28;20032;-64
2021/09/02 03:25:52;;;;;;;25.63;13.80;;;;;;;14.11;89.60;102585.34;2090274;28;20341;-63
2021/09/02 03:26:53;;;;;;;16.03;12.80;;;;;;;14.12;89.55;102581.78;2090234;28;20501;-64
2021/09/02 03:27:53;;;;;;;23.57;13.73;;;;;;;14.10;89.32;102581.84;2090231;28;20036;-63
2021/09/02 03:28:54;;;;;;;25.63;13.60;;;;;;;14.11;89.63;102580.94;2090193;28;20086;-63
2021/09/02 03:29:54;;;;;;;20.45;14.00;;;;;;;14.11;89.37;102583.56;2090403;28;20291;-63
2021/09/02 03:30:54;;;;;;;20.37;15.10;;;;;;;14.09;89.30;102585.38;2090260;28;20037;-63
2021/09/02 03:31:54;;;;;;;22.87;14.17;;;;;;;14.10;89.36;102583.63;2090286;28;20039;-64
2021/09/02 03:32:55;;;;;;;23.60;13.67;;;;;;;14.07;89.32;102584.56;2090243;28;20028;-64
2021/09/02 03:33:55;;;;;;;25.50;15.17;;;;;;;14.05;89.20;102586.38;2090031;28;20025;-64
2021/09/02 03:34:55;;;;;;;25.17;14.47;;;;;;;14.03;89.74;102585.56;2090213;28;20497;-64
2021/09/02 03:35:56;;;;;;;19.00;13.30;;;;;;;14.04;89.58;102582.03;2090162;28;20371;-64
2021/09/02 03:36:56;;;;;;;23.40;14.45;;;;;;;14.04;89.22;102584.66;2090185;28;20427;-64
2021/09/02 03:37:57;;;;;;;25.73;15.65;;;;;;;14.07;89.24;102584.56;2090109;28;20545;-64
2021/09/02 03:38:57;;;;;;;23.10;14.70;;;;;;;14.07;89.48;102589.81;2090146;28;20036;-64
2021/09/02 03:39:57;;;;;;;24.17;14.57;;;;;;;14.06;88.89;102590.72;2090161;28;20028;-64
2021/09/02 03:40:57;;;;;;;20.20;13.53;;;;;;;14.07;88.79;102592.44;2090256;28;20021;-64
2021/09/02 03:41:58;;;;;;;24.87;14.93;;;;;;;14.06;88.89;102587.25;2090160;28;20504;-64
2021/09/02 03:42:58;;;;;;;25.60;16.38;;;;;;;14.04;88.53;102589.91;2089420;28;20060;-65
2021/09/02 03:43:58;;;;;;;22.77;14.77;;;;;;;14.02;88.19;102583.81;2089629;28;20408;-65
2021/09/02 03:44:59;;;;;;;23.47;14.80;;;;;;;14.02;88.16;102584.69;2090318;28;20029;-64
2021/09/02 03:45:59;;;;;;;18.63;14.70;;;;;;;14.03;88.06;102586.41;2090196;28;20037;-64
2021/09/02 03:46:59;;;;;;;22.93;14.63;;;;;;;14.04;87.75;102587.28;2090108;28;20043;-64
2021/09/02 03:48:00;;;;;;;23.90;14.07;;;;;;;14.03;87.92;102582.94;2090130;28;20051;-64
2021/09/02 03:49:00;;;;;;;23.30;13.43;;;;;;;14.01;88.16;102576.88;2090065;28;20496;-65
2021/09/02 03:50:02;;;;;;;23.00;14.68;;;;;;;14.00;88.07;102577.78;2090042;28;20470;-64
2021/09/02 03:51:02;;;;;;;22.88;14.48;;;;;;;13.98;88.35;102580.44;2090065;28;20031;-65
2021/09/02 03:52:03;;;;;;;16.73;13.97;;;;;;;13.97;88.27;102577.88;2090058;28;20028;-64
2021/09/02 03:53:03;;;;;;;23.60;15.90;;;;;;;13.93;88.40;102579.72;2090056;28;20051;-64
2021/09/02 03:54:03;;;;;;;24.03;14.80;;;;;;;13.93;87.95;102574.47;2090152;28;20568;-64
2021/09/02 03:55:05;;;;;;;22.20;14.23;;;;;;;13.92;88.22;102574.53;2090211;28;20439;-64
2021/09/02 03:56:05;;;;;;;22.70;14.23;;;;;;;13.90;88.01;102572.78;2090040;28;20539;-64
2021/09/02 03:57:05;;;;;;;22.90;13.83;;;;;;;13.90;87.99;102570.16;2090143;28;20090;-63
2021/09/02 03:58:07;;;;;;;23.30;14.33;;;;;;;13.89;88.02;102562.34;2090150;28;20033;-64
2021/09/02 03:59:07;;;;;;;21.30;13.85;;;;;;;13.88;88.22;102569.34;2090057;28;20106;-64
2021/09/02 04:00:10;;;;;;;26.33;14.17;;;;;;;13.86;88.39;102565.91;2090286;28;20025;-64
2021/09/02 04:01:10;;;;;;;18.85;13.07;;;;;;;13.85;88.19;102564.19;2089976;28;20409;-63
2021/09/02 04:02:10;;;;;;;20.13;14.10;;;;;;;13.85;87.99;102568.56;2090081;28;20024;-64
2021/09/02 04:03:10;;;;;;;22.20;12.83;;;;;;;13.84;87.86;102565.09;2089970;28;20034;-63
2021/09/02 04:04:11;;;;;;;24.50;14.47;;;;;;;13.85;87.57;102576.44;2090095;28;20362;-64
2021/09/02 04:05:11;;;;;;;21.57;13.80;;;;;;;13.84;87.76;102567.72;2090089;28;20025;-64
2021/09/02 04:06:11;;;;;;;22.53;13.90;;;;;;;13.82;87.55;102569.53;2090142;28;20022;-64
2021/09/02 04:07:11;;;;;;;22.57;12.93;;;;;;;13.82;87.58;102572.16;2090000;28;20083;-65
2021/09/02 04:08:12;;;;;;;20.33;12.50;;;;;;;13.81;87.72;102566.94;2090024;28;20111;-64
2021/09/02 04:09:12;;;;;;;20.20;13.90;;;;;;;13.80;87.71;102568.72;2090088;28;20025;-64
2021/09/02 04:10:12;;;;;;;18.27;12.83;;;;;;;13.79;87.49;102559.09;2090056;28;20024;-64
2021/09/02 04:11:13;;;;;;;22.33;13.10;;;;;;;13.79;87.67;102561.72;2090089;28;20450;-64
2021/09/02 04:12:13;;;;;;;19.37;12.13;;;;;;;13.79;87.66;102564.34;2089938;28;20021;-64
2021/09/02 04:13:13;;;;;;;19.00;12.07;;;;;;;13.80;87.68;102559.97;2090036;28;20025;-64
2021/09/02 04:14:13;;;;;;;21.87;12.87;;;;;;;13.78;87.67;102557.41;2090024;28;20452;-63
2021/09/02 04:15:14;;;;;;;22.23;13.77;;;;;;;13.74;87.53;102556.63;2090036;28;20039;-64
2021/09/02 04:16:14;;;;;;;18.30;12.13;;;;;;;13.75;87.51;102552.22;2089840;28;20025;-64
2021/09/02 04:17:14;;;;;;;20.03;12.73;;;;;;;13.72;87.74;102553.19;2090077;28;20021;-63
2021/09/02 04:18:15;;;;;;;23.30;12.65;;;;;;;13.69;87.43;102548.00;2090003;28;20021;-63
2021/09/02 04:19:15;;;;;;;23.75;12.55;;;;;;;13.64;87.50;102548.16;2089326;28;20075;-64
2021/09/02 04:20:16;;;;;;;18.07;11.77;;;;;;;13.60;87.95;102557.03;2089400;28;20021;-64
2021/09/02 04:21:16;;;;;;;22.63;13.93;;;;;;;13.56;87.91;102547.53;2089949;28;20017;-64
2021/09/02 04:22:16;;;;;;;18.03;12.03;;;;;;;13.54;88.06;102549.31;2089993;28;20045;-64
2021/09/02 04:23:17;;;;;;;15.67;12.33;;;;;;;13.51;88.14;102550.25;2089151;28;20059;-64
2021/09/02 04:24:17;;;;;;;20.10;12.30;;;;;;;13.50;88.48;102547.69;2089488;28;20691;-64
2021/09/02 04:25:18;;;;;;;24.80;13.00;;;;;;;13.46;88.46;102546.88;2090054;28;20017;-66
2021/09/02 04:26:19;;;;;;;21.93;11.80;;;;;;;13.41;88.83;102550.53;2089983;28;20086;-64
2021/09/02 04:27:20;;;;;;;18.27;13.15;;;;;;;13.38;89.02;102548.84;2090010;28;20507;-64
2021/09/02 04:28:20;;;;;;;23.87;13.00;;;;;;;13.35;88.75;102544.53;2090017;28;20024;-64
2021/09/02 04:29:21;;;;;;;18.80;13.43;;;;;;;13.34;89.18;102552.47;2089972;28;20052;-64
2021/09/02 04:30:21;;;;;;;20.17;12.43;;;;;;;13.34;88.93;102553.31;2089992;28;20025;-64
2021/09/02 04:31:21;;;;;;;19.03;12.63;;;;;;;13.33;89.28;102562.09;2089975;28;20526;-63
2021/09/02 04:32:22;;;;;;;21.13;12.60;;;;;;;13.32;89.46;102557.75;2089978;28;20102;-64
2021/09/02 04:33:22;;;;;;;19.97;12.00;;;;;;;13.33;89.61;102562.09;2090063;28;20095;-64
2021/09/02 04:34:22;;;;;;;21.98;13.18;;;;;;;13.33;89.34;102562.09;2089665;28;20027;-64
2021/09/02 04:35:23;;;;;;;18.10;12.23;;;;;;;13.34;89.59;102558.56;2090936;28;20033;-64
2021/09/02 04:36:23;;;;;;;20.97;12.60;;;;;;;13.36;89.22;102561.13;2091543;28;20047;-64